createdAt,value
2019-01-12T00:00:42.741Z,5.60
2019-01-12T00:03:12.022Z,5.60
2019-01-12T00:05:41.298Z,5.70
2019-01-12T00:08:12.590Z,5.60
2019-01-12T00:10:41.646Z,5.70
2019-01-12T00:13:11.007Z,5.70
2019-01-12T00:15:40.318Z,5.60
2019-01-12T00:18:09.673Z,5.60
2019-01-12T00:20:39.010Z,5.70
2019-01-12T00:23:08.218Z,5.60
2019-01-12T00:25:37.572Z,5.60
2019-01-12T00:28:06.850Z,5.70
2019-01-12T00:30:36.118Z,5.70
2019-01-12T00:33:05.369Z,5.70
2019-01-12T00:35:34.683Z,5.70
2019-01-12T00:38:03.950Z,5.70
2019-01-12T00:40:33.282Z,5.70
2019-01-12T00:43:02.546Z,5.70
2019-01-12T00:45:32.129Z,5.70
2019-01-12T00:48:01.377Z,5.70
2019-01-12T00:50:30.657Z,5.70
2019-01-12T00:53:00.129Z,5.70
2019-01-12T00:55:29.381Z,5.70
2019-01-12T00:57:58.715Z,5.70
2019-01-12T01:00:28.528Z,5.70
2019-01-12T01:02:57.958Z,5.70
2019-01-12T01:05:27.295Z,5.80
2019-01-12T01:07:56.598Z,5.80
2019-01-12T01:10:25.875Z,5.80
2019-01-12T01:12:55.252Z,5.70
2019-01-12T01:15:24.506Z,5.80
2019-01-12T01:17:53.880Z,5.70
2019-01-12T01:20:23.137Z,5.70
2019-01-12T01:22:52.413Z,5.70
2019-01-12T01:25:21.695Z,5.70
2019-01-12T01:27:51.070Z,5.70
2019-01-12T01:30:21.006Z,5.70
2019-01-12T01:32:50.282Z,5.70
2019-01-12T01:35:19.637Z,5.80
2019-01-12T01:37:48.913Z,5.80
2019-01-12T01:40:19.468Z,5.80
2019-01-12T01:42:48.778Z,5.80
2019-01-12T01:45:18.369Z,5.70
2019-01-12T01:47:47.681Z,5.70
2019-01-12T01:50:17.080Z,5.70
2019-01-12T01:52:46.443Z,5.80
2019-01-12T01:55:15.686Z,5.80
2019-01-12T01:57:45.025Z,5.80
2019-01-12T02:00:18.775Z,5.80
2019-01-12T02:02:48.103Z,5.80
2019-01-12T02:05:17.445Z,5.70
2019-01-12T02:07:46.724Z,5.80
2019-01-12T02:10:21.520Z,5.80
2019-01-12T02:12:50.830Z,5.80
2019-01-12T02:15:21.502Z,5.90
2019-01-12T02:17:50.884Z,5.80
2019-01-12T02:20:20.171Z,5.90
2019-01-12T02:22:49.454Z,5.90
2019-01-12T02:25:18.889Z,5.90
2019-01-12T02:27:48.088Z,5.90
2019-01-12T02:30:23.037Z,5.90
2019-01-12T02:32:52.592Z,5.90
2019-01-12T02:35:21.831Z,5.90
2019-01-12T02:37:51.192Z,5.90
2019-01-12T02:40:20.500Z,5.90
2019-01-12T02:42:49.902Z,5.90
2019-01-12T02:45:19.282Z,5.90
2019-01-12T02:47:48.595Z,5.90
2019-01-12T02:50:17.901Z,5.90
2019-01-12T02:52:47.292Z,5.90
2019-01-12T02:55:16.637Z,5.90
2019-01-12T02:57:45.911Z,5.90
2019-01-12T03:00:19.495Z,5.90
2019-01-12T03:02:48.783Z,5.90
2019-01-12T03:05:18.089Z,5.90
2019-01-12T03:07:47.526Z,6.00
2019-01-12T03:10:18.018Z,6.00
2019-01-12T03:12:47.487Z,6.00
2019-01-12T03:15:19.535Z,5.90
2019-01-12T03:17:48.875Z,6.00
2019-01-12T03:20:19.459Z,6.00
2019-01-12T03:22:48.806Z,6.00
2019-01-12T03:25:19.305Z,6.00
2019-01-12T03:27:48.751Z,6.00
2019-01-12T03:30:19.291Z,6.00
2019-01-12T03:32:48.591Z,6.00
2019-01-12T03:35:17.821Z,6.00
2019-01-12T03:37:47.079Z,6.00
2019-01-12T03:40:21.112Z,6.10
2019-01-12T03:42:50.386Z,6.10
2019-01-12T03:45:20.987Z,6.10
2019-01-12T03:47:50.649Z,6.10
2019-01-12T03:50:20.163Z,6.10
2019-01-12T03:52:49.541Z,6.10
2019-01-12T03:55:25.386Z,6.10
2019-01-12T03:57:49.909Z,6.10
2019-01-12T04:00:21.264Z,6.10
2019-01-12T04:02:50.652Z,6.10
2019-01-12T04:05:20.163Z,6.00
2019-01-12T04:07:49.514Z,6.00
2019-01-12T04:10:18.800Z,6.10
2019-01-12T04:12:48.122Z,6.10
2019-01-12T04:15:17.509Z,6.10
2019-01-12T04:17:47.118Z,6.20
2019-01-12T04:20:17.670Z,6.20
2019-01-12T04:22:46.947Z,6.20
2019-01-12T04:25:16.274Z,6.20
2019-01-12T04:27:45.548Z,6.20
2019-01-12T04:30:16.716Z,6.20
2019-01-12T04:32:46.031Z,6.20
2019-01-12T04:35:15.303Z,6.20
2019-01-12T04:37:44.567Z,6.20
2019-01-12T04:40:18.716Z,6.20
2019-01-12T04:42:48.078Z,6.20
2019-01-12T04:45:17.299Z,6.20
2019-01-12T04:47:46.551Z,6.10
2019-01-12T04:50:17.283Z,6.10
2019-01-12T04:52:46.934Z,6.10
2019-01-12T04:55:16.536Z,6.10
2019-01-12T04:57:45.850Z,6.10
2019-01-12T05:00:19.554Z,6.00
2019-01-12T05:02:50.231Z,6.00
2019-01-12T05:05:19.511Z,5.90
2019-01-12T05:07:48.758Z,5.90
2019-01-12T05:10:18.016Z,6.00
2019-01-12T05:12:47.289Z,5.90
2019-01-12T05:15:16.977Z,5.90
2019-01-12T05:17:46.242Z,6.00
2019-01-12T05:20:24.512Z,6.00
2019-01-12T05:22:53.807Z,6.00
2019-01-12T05:25:23.125Z,6.00
2019-01-12T05:27:52.471Z,6.00
2019-01-12T05:30:23.104Z,6.00
2019-01-12T05:32:52.819Z,6.00
2019-01-12T05:35:22.104Z,6.00
2019-01-12T05:37:51.421Z,6.00
2019-01-12T05:40:20.729Z,6.00
2019-01-12T05:42:49.989Z,6.00
2019-01-12T05:45:19.388Z,6.10
2019-01-12T05:47:48.636Z,6.00
2019-01-12T05:50:17.939Z,6.00
2019-01-12T05:52:47.395Z,6.00
2019-01-12T05:55:16.772Z,6.00
2019-01-12T05:57:46.131Z,6.00
2019-01-12T06:00:20.701Z,5.90
2019-01-12T06:02:50.075Z,5.90
2019-01-12T06:05:19.610Z,5.90
2019-01-12T06:07:49.017Z,5.90
2019-01-12T06:10:18.307Z,5.90
2019-01-12T06:12:47.589Z,5.90
2019-01-12T06:15:17.027Z,5.80
2019-01-12T06:17:46.298Z,5.80
2019-01-12T06:20:16.269Z,5.80
2019-01-12T06:22:45.701Z,5.80
2019-01-12T06:25:15.204Z,5.80
2019-01-12T06:27:44.552Z,5.80
2019-01-12T06:30:19.422Z,5.90
2019-01-12T06:32:48.773Z,5.90
2019-01-12T06:35:18.041Z,5.90
2019-01-12T06:37:47.385Z,5.90
2019-01-12T06:40:18.457Z,5.90
2019-01-12T06:42:48.234Z,5.90
2019-01-12T06:45:18.735Z,6.00
2019-01-12T06:47:48.250Z,6.00
2019-01-12T06:50:19.100Z,6.00
2019-01-12T06:52:48.360Z,6.00
2019-01-12T06:55:17.642Z,6.00
2019-01-12T06:57:46.914Z,6.10
2019-01-12T07:00:18.426Z,6.10
2019-01-12T07:02:47.704Z,6.10
2019-01-12T07:05:17.043Z,6.10
2019-01-12T07:07:46.276Z,6.10
2019-01-12T07:10:16.015Z,6.10
2019-01-12T07:12:45.282Z,6.10
2019-01-12T07:15:14.678Z,6.10
2019-01-12T07:17:44.003Z,6.10
2019-01-12T07:20:15.675Z,6.10
2019-01-12T07:22:46.319Z,6.00
2019-01-12T07:25:16.032Z,6.10
2019-01-12T07:27:45.336Z,6.10
2019-01-12T07:30:22.594Z,6.10
2019-01-12T07:32:51.836Z,6.00
2019-01-12T07:35:21.110Z,6.00
2019-01-12T07:37:50.410Z,6.00
2019-01-12T07:40:19.686Z,6.00
2019-01-12T07:42:49.036Z,6.00
2019-01-12T07:45:18.306Z,6.00
2019-01-12T07:47:47.774Z,6.00
2019-01-12T07:50:17.215Z,6.00
2019-01-12T07:52:46.498Z,6.00
2019-01-12T07:55:15.764Z,6.00
2019-01-12T07:57:45.073Z,6.00
2019-01-12T08:00:20.774Z,6.00
2019-01-12T08:02:50.066Z,6.00
2019-01-12T08:05:19.737Z,6.00
2019-01-12T08:07:49.021Z,6.00
2019-01-12T08:10:20.993Z,6.00
2019-01-12T08:12:50.304Z,6.00
2019-01-12T08:15:19.673Z,6.00
2019-01-12T08:17:49.129Z,6.00
2019-01-12T08:20:18.458Z,6.00
2019-01-12T08:22:47.850Z,6.00
2019-01-12T08:25:17.182Z,6.00
2019-01-12T08:27:46.530Z,6.00
2019-01-12T08:30:17.885Z,6.00
2019-01-12T08:32:47.287Z,6.00
2019-01-12T08:35:16.922Z,6.00
2019-01-12T08:37:46.315Z,6.10
2019-01-12T08:40:15.581Z,6.00
2019-01-12T08:42:45.153Z,6.10
2019-01-12T08:45:14.631Z,6.10
2019-01-12T08:47:44.016Z,6.10
2019-01-12T08:50:18.650Z,6.10
2019-01-12T08:52:48.125Z,6.10
2019-01-12T08:55:17.733Z,6.10
2019-01-12T08:57:46.951Z,6.10
2019-01-12T09:00:18.422Z,6.10
2019-01-12T09:02:47.703Z,6.10
2019-01-12T09:05:17.144Z,6.10
2019-01-12T09:07:46.450Z,6.20
2019-01-12T09:10:19.538Z,6.20
2019-01-12T09:12:49.079Z,6.20
2019-01-12T09:15:18.451Z,6.20
2019-01-12T09:17:47.729Z,6.30
2019-01-12T09:20:17.229Z,6.30
2019-01-12T09:22:46.699Z,6.30
2019-01-12T09:25:16.384Z,6.30
2019-01-12T09:27:45.673Z,6.30
2019-01-12T09:30:22.283Z,6.30
2019-01-12T09:32:52.028Z,6.30
2019-01-12T09:35:21.457Z,6.30
2019-01-12T09:37:52.443Z,6.40
2019-01-12T09:40:22.684Z,6.40
2019-01-12T09:42:52.236Z,6.40
2019-01-12T09:45:21.946Z,6.40
2019-01-12T09:47:51.520Z,6.50
2019-01-12T09:50:21.567Z,6.50
2019-01-12T09:52:51.685Z,6.50
2019-01-12T09:55:21.019Z,6.50
2019-01-12T09:57:50.289Z,6.60
2019-01-12T10:00:24.819Z,6.50
2019-01-12T10:02:54.129Z,6.50
2019-01-12T10:05:23.697Z,6.50
2019-01-12T10:07:53.127Z,6.40
2019-01-12T10:10:22.978Z,6.40
2019-01-12T10:12:52.305Z,6.40
2019-01-12T10:15:21.792Z,6.40
2019-01-12T10:17:51.292Z,6.40
2019-01-12T10:20:21.611Z,6.50
2019-01-12T10:22:51.453Z,6.50
2019-01-12T10:25:20.911Z,6.50
2019-01-12T10:27:50.892Z,6.60
2019-01-12T10:30:26.103Z,6.60
2019-01-12T10:32:55.882Z,6.70
2019-01-12T10:35:25.666Z,6.70
2019-01-12T10:37:55.087Z,6.70
2019-01-12T10:40:26.352Z,6.70
2019-01-12T10:42:55.805Z,6.70
2019-01-12T10:45:25.739Z,6.70
2019-01-12T10:47:55.756Z,6.70
2019-01-12T10:50:34.408Z,6.70
2019-01-12T10:53:04.515Z,6.60
2019-01-12T10:55:33.949Z,6.50
2019-01-12T10:58:05.802Z,6.60
2019-01-12T11:00:36.896Z,6.60
2019-01-12T11:03:06.516Z,6.50
2019-01-12T11:05:36.064Z,6.50
2019-01-12T11:08:07.349Z,6.50
2019-01-12T11:10:36.666Z,6.50
2019-01-12T11:13:06.302Z,6.40
2019-01-12T11:15:35.517Z,6.40
2019-01-12T11:18:05.857Z,6.40
2019-01-12T11:20:35.269Z,6.40
2019-01-12T11:23:05.235Z,6.30
2019-01-12T11:25:34.755Z,6.40
2019-01-12T11:28:04.132Z,6.40
2019-01-12T11:30:33.570Z,6.30
2019-01-12T11:33:02.874Z,6.40
2019-01-12T11:35:32.298Z,6.30
2019-01-12T11:38:01.627Z,6.20
2019-01-12T11:40:33.360Z,6.20
2019-01-12T11:43:02.932Z,6.20
2019-01-12T11:45:32.322Z,6.10
2019-01-12T11:48:01.636Z,6.10
2019-01-12T11:50:31.056Z,6.10
2019-01-12T11:53:01.190Z,6.00
2019-01-12T11:55:30.711Z,6.00
2019-01-12T11:58:00.077Z,6.00
2019-01-12T12:00:30.760Z,5.90
2019-01-12T12:03:00.787Z,5.90
2019-01-12T12:05:30.175Z,5.90
2019-01-12T12:07:59.466Z,5.90
2019-01-12T12:10:28.823Z,5.90
2019-01-12T12:12:58.107Z,5.90
2019-01-12T12:15:27.643Z,5.80
2019-01-12T12:17:57.054Z,5.80
2019-01-12T12:20:28.242Z,5.80
2019-01-12T12:22:57.906Z,5.80
2019-01-12T12:25:27.330Z,5.70
2019-01-12T12:27:56.646Z,5.80
2019-01-12T12:30:30.354Z,5.70
2019-01-12T12:32:59.981Z,5.80
2019-01-12T12:35:29.442Z,5.80
2019-01-12T12:37:58.720Z,5.70
2019-01-12T12:40:28.000Z,5.70
2019-01-12T12:42:57.326Z,5.70
2019-01-12T12:45:32.824Z,5.70
2019-01-12T12:48:02.240Z,5.80
2019-01-12T12:50:31.605Z,5.80
2019-01-12T12:53:00.857Z,5.80
2019-01-12T12:55:30.248Z,5.80
2019-01-12T12:58:01.233Z,5.80
2019-01-12T13:00:34.302Z,5.80
2019-01-12T13:03:03.636Z,5.80
2019-01-12T13:05:33.006Z,5.90
2019-01-12T13:08:02.298Z,5.90
2019-01-12T13:10:32.579Z,5.90
2019-01-12T13:13:02.008Z,5.90
2019-01-12T13:15:31.390Z,5.90
2019-01-12T13:18:00.825Z,5.90
2019-01-12T13:20:30.144Z,5.90
2019-01-12T13:22:59.430Z,6.00
2019-01-12T13:25:29.605Z,6.00
2019-01-12T13:27:59.036Z,6.00
2019-01-12T13:30:28.733Z,6.00
2019-01-12T13:32:58.022Z,6.00
2019-01-12T13:35:27.355Z,6.00
2019-01-12T13:37:57.009Z,6.00
2019-01-12T13:40:28.817Z,6.10
2019-01-12T13:42:58.202Z,6.10
2019-01-12T13:45:27.538Z,6.00
2019-01-12T13:47:57.026Z,6.10
2019-01-12T13:50:28.544Z,6.10
2019-01-12T13:52:57.869Z,6.10
2019-01-12T13:55:27.238Z,6.10
2019-01-12T13:57:56.711Z,6.10
2019-01-12T14:00:29.435Z,6.10
2019-01-12T14:02:58.773Z,6.10
2019-01-12T14:05:29.258Z,6.10
2019-01-12T14:07:58.945Z,6.00
2019-01-12T14:10:28.263Z,6.00
2019-01-12T14:12:57.671Z,6.10
2019-01-12T14:15:27.046Z,6.10
2019-01-12T14:17:56.371Z,6.00
2019-01-12T14:20:34.240Z,6.00
2019-01-12T14:23:03.573Z,6.10
2019-01-12T14:25:32.861Z,6.10
2019-01-12T14:28:02.163Z,6.10
2019-01-12T14:30:31.706Z,6.00
2019-01-12T14:33:02.482Z,6.10
2019-01-12T14:35:31.771Z,6.10
2019-01-12T14:38:01.500Z,6.10
2019-01-12T14:40:30.958Z,6.10
2019-01-12T14:43:00.285Z,6.10
2019-01-12T14:45:31.371Z,6.10
2019-01-12T14:48:00.700Z,6.10
2019-01-12T14:50:30.125Z,6.10
2019-01-12T14:52:59.513Z,6.10
2019-01-12T14:55:28.758Z,6.10
2019-01-12T14:58:02.775Z,6.10
2019-01-12T15:00:29.922Z,6.10
2019-01-12T15:02:59.193Z,6.10
2019-01-12T15:05:30.488Z,6.20
2019-01-12T15:07:59.756Z,6.20
2019-01-12T15:10:29.203Z,6.20
2019-01-12T15:12:58.516Z,6.20
2019-01-12T15:15:27.767Z,6.20
2019-01-12T15:17:57.147Z,6.20
2019-01-12T15:20:31.260Z,6.20
2019-01-12T15:23:00.904Z,6.20
2019-01-12T15:25:30.286Z,6.20
2019-01-12T15:27:59.601Z,6.20
2019-01-12T15:30:32.818Z,6.20
2019-01-12T15:33:07.537Z,6.30
2019-01-12T15:35:38.189Z,6.30
2019-01-12T15:38:07.553Z,6.30
2019-01-12T15:40:36.847Z,6.30
2019-01-12T15:43:06.132Z,6.30
2019-01-12T15:45:35.428Z,6.40
2019-01-12T15:48:04.877Z,6.30
2019-01-12T15:50:35.629Z,6.40
2019-01-12T15:53:05.071Z,6.40
2019-01-12T15:55:34.392Z,6.30
2019-01-12T15:58:03.676Z,6.40
2019-01-12T16:00:33.058Z,6.40
2019-01-12T16:03:03.890Z,6.40
2019-01-12T16:05:33.213Z,6.40
2019-01-12T16:08:02.574Z,6.40
2019-01-12T16:10:31.829Z,6.40
2019-01-12T16:13:01.200Z,6.50
2019-01-12T16:15:30.547Z,6.40
2019-01-12T16:17:59.929Z,6.50
2019-01-12T16:20:35.438Z,6.40
2019-01-12T16:23:04.753Z,6.50
2019-01-12T16:25:35.169Z,6.40
2019-01-12T16:28:04.925Z,6.40
2019-01-12T16:30:34.265Z,6.40
2019-01-12T16:33:03.978Z,6.40
2019-01-12T16:35:33.293Z,6.40
2019-01-12T16:38:02.592Z,6.40
2019-01-12T16:40:31.849Z,6.40
2019-01-12T16:43:01.164Z,6.40
2019-01-12T16:45:30.444Z,6.40
2019-01-12T16:47:59.914Z,6.40
2019-01-12T16:50:29.282Z,6.40
2019-01-12T16:52:58.563Z,6.40
2019-01-12T16:55:27.824Z,6.40
2019-01-12T16:57:57.120Z,6.50
2019-01-12T17:00:30.782Z,6.40
2019-01-12T17:03:01.961Z,6.40
2019-01-12T17:05:31.385Z,6.40
2019-01-12T17:08:00.802Z,6.40
2019-01-12T17:10:30.162Z,6.40
2019-01-12T17:12:59.570Z,6.40
2019-01-12T17:15:34.678Z,6.40
2019-01-12T17:17:59.855Z,6.50
2019-01-12T17:20:29.698Z,6.40
2019-01-12T17:23:01.202Z,6.40
2019-01-12T17:25:30.666Z,6.40
2019-01-12T17:27:59.957Z,6.30
2019-01-12T17:30:30.436Z,6.40
2019-01-12T17:32:59.796Z,6.40
2019-01-12T17:35:29.492Z,6.40
2019-01-12T17:37:59.132Z,6.40
2019-01-12T17:40:28.448Z,6.40
2019-01-12T17:42:57.733Z,6.30
2019-01-12T17:45:27.539Z,6.40
2019-01-12T17:47:56.949Z,6.40
2019-01-12T17:50:27.644Z,6.30
2019-01-12T17:52:57.101Z,6.30
2019-01-12T17:55:27.665Z,6.30
2019-01-12T17:57:58.328Z,6.30
2019-01-12T18:01:00.422Z,6.30
2019-01-12T18:03:29.793Z,6.30
2019-01-12T18:05:59.103Z,6.20
2019-01-12T18:08:28.452Z,6.20
2019-01-12T18:10:57.768Z,6.30
2019-01-12T18:13:27.136Z,6.30
2019-01-12T18:15:56.561Z,6.30
2019-01-12T18:18:25.912Z,6.30
2019-01-12T18:20:55.300Z,6.30
2019-01-12T18:23:24.664Z,6.30
2019-01-12T18:25:53.986Z,6.20
2019-01-12T18:28:23.417Z,6.20
2019-01-12T18:30:52.750Z,6.30
2019-01-12T18:33:22.172Z,6.30
2019-01-12T18:35:51.668Z,6.20
2019-01-12T18:38:21.188Z,6.30
2019-01-12T18:40:50.538Z,6.30
2019-01-12T18:43:19.961Z,6.30
2019-01-12T18:45:49.636Z,6.30
2019-01-12T18:48:19.115Z,6.30
2019-01-12T18:50:48.440Z,6.30
2019-01-12T18:53:17.785Z,6.30
2019-01-12T18:55:47.213Z,6.30
2019-01-12T18:58:16.518Z,6.30
2019-01-12T19:00:45.825Z,6.20
2019-01-12T19:03:15.342Z,6.20
2019-01-12T19:05:44.697Z,6.20
2019-01-12T19:08:14.494Z,6.10
2019-01-12T19:10:45.137Z,6.10
2019-01-12T19:13:14.495Z,6.00
2019-01-12T19:15:43.918Z,6.00
2019-01-12T19:18:13.400Z,6.10
2019-01-12T19:20:42.750Z,6.00
2019-01-12T19:23:12.182Z,6.00
2019-01-12T19:25:41.612Z,6.00
2019-01-12T19:28:13.990Z,6.10
2019-01-12T19:30:43.626Z,6.10
2019-01-12T19:33:13.349Z,6.10
2019-01-12T19:35:42.734Z,6.10
2019-01-12T19:38:12.059Z,6.10
2019-01-12T19:40:41.635Z,6.10
2019-01-12T19:43:10.920Z,6.10
2019-01-12T19:45:40.323Z,6.10
2019-01-12T19:48:09.714Z,6.10
2019-01-12T19:50:39.307Z,6.20
2019-01-12T19:53:08.627Z,6.20
2019-01-12T19:55:37.913Z,6.20
2019-01-12T19:58:07.127Z,6.20
2019-01-12T20:00:36.419Z,6.20
2019-01-12T20:03:05.872Z,6.20
2019-01-12T20:05:35.183Z,6.20
2019-01-12T20:08:04.687Z,6.30
2019-01-12T20:10:33.905Z,6.30
2019-01-12T20:13:03.241Z,6.30
2019-01-12T20:15:32.524Z,6.30
2019-01-12T20:18:01.797Z,6.30
2019-01-12T20:20:31.020Z,6.20
2019-01-12T20:23:00.339Z,6.30
2019-01-12T20:25:31.029Z,6.20
2019-01-12T20:28:26.933Z,6.30
2019-01-12T20:31:28.220Z,6.30
2019-01-12T20:34:20.626Z,6.30
2019-01-12T20:37:46.114Z,6.30
2019-01-12T20:40:44.059Z,6.30
2019-01-12T20:44:00.181Z,6.30
2019-01-12T20:47:01.289Z,6.30
2019-01-12T20:49:45.930Z,6.20
2019-01-12T20:52:54.033Z,6.20
2019-01-12T20:55:53.820Z,6.10
2019-01-12T20:58:47.888Z,6.10
2019-01-12T21:01:35.019Z,6.10
2019-01-12T21:04:44.648Z,6.10
2019-01-12T21:07:46.480Z,6.10
2019-01-12T21:10:56.725Z,6.20
2019-01-12T21:14:05.953Z,6.20
2019-01-12T21:16:39.019Z,6.20
2019-01-12T21:19:08.417Z,6.20
2019-01-12T21:21:37.699Z,6.20
2019-01-12T21:24:07.227Z,6.30
2019-01-12T21:26:36.634Z,6.20
2019-01-12T21:29:05.979Z,6.20
2019-01-12T21:31:35.251Z,6.20
2019-01-12T21:34:04.647Z,6.20
2019-01-12T21:36:33.938Z,6.20
2019-01-12T21:39:04.321Z,6.10
2019-01-12T21:41:33.669Z,6.20
2019-01-12T21:44:03.080Z,6.20
2019-01-12T21:46:32.433Z,6.20
2019-01-12T21:49:01.858Z,6.20
2019-01-12T21:51:31.053Z,6.20
2019-01-12T21:54:00.506Z,6.20
2019-01-12T21:56:29.806Z,6.20
2019-01-12T21:58:59.167Z,6.20
2019-01-12T22:01:28.673Z,6.20
2019-01-12T22:03:57.999Z,6.20
2019-01-12T22:06:27.283Z,6.20
2019-01-12T22:08:56.524Z,6.20
2019-01-12T22:11:26.014Z,6.20
2019-01-12T22:13:55.366Z,6.20
2019-01-12T22:16:24.570Z,6.10
2019-01-12T22:18:53.846Z,6.20
2019-01-12T22:21:23.205Z,6.10
2019-01-12T22:23:52.540Z,6.10
2019-01-12T22:26:21.807Z,6.00
2019-01-12T22:28:51.079Z,6.10
2019-01-12T22:31:20.443Z,6.00
2019-01-12T22:33:51.168Z,6.00
2019-01-12T22:36:20.434Z,6.00
2019-01-12T22:38:51.149Z,6.00
2019-01-12T22:41:20.461Z,6.00
2019-01-12T22:43:49.719Z,6.00
2019-01-12T22:46:18.998Z,6.00
2019-01-12T22:48:48.262Z,6.00
2019-01-12T22:51:17.469Z,5.90
2019-01-12T22:53:46.748Z,5.90
2019-01-12T22:56:16.145Z,5.80
2019-01-12T22:58:45.397Z,5.90
2019-01-12T23:01:35.404Z,5.80
2019-01-12T23:04:04.990Z,5.80
2019-01-12T23:06:34.386Z,5.80
2019-01-12T23:09:05.124Z,5.70
2019-01-12T23:11:34.494Z,5.70
2019-01-12T23:14:03.686Z,5.70
2019-01-12T23:16:33.029Z,5.70
2019-01-12T23:19:02.301Z,5.70
2019-01-12T23:21:31.649Z,5.70
2019-01-12T23:24:00.890Z,5.70
2019-01-12T23:26:30.188Z,5.70
2019-01-12T23:28:59.522Z,5.70
2019-01-12T23:31:28.886Z,5.70
2019-01-12T23:33:58.154Z,5.70
2019-01-12T23:36:27.462Z,5.70
2019-01-12T23:38:56.775Z,5.70
2019-01-12T23:41:26.177Z,5.80
2019-01-12T23:43:55.442Z,5.80
2019-01-12T23:46:24.670Z,5.80
2019-01-12T23:48:53.977Z,5.80
2019-01-12T23:51:23.633Z,5.80
2019-01-12T23:53:52.870Z,5.90
2019-01-12T23:56:22.151Z,5.90
2019-01-12T23:58:51.473Z,5.90
